Flight Track Log - Related Links

Times and Time Zones

All times are in EDT time to prevent confusion due to time zone crossing. See the EGF2620 flight status page for this flight to view local times or setup timezone preferences in your user account.

Time Position Orientation Groundspeed Altitude Reporting Facility
EDT Latitude Longitude Course Direction KTS MPH feet Rate Location/Type
Tue 06:50:00 PM 32.9966 -117.4509 320° Northwest  Level Estimated
Tue 06:51:00 PM 33.0492 -117.5034 320° Northwest  Level Estimated
Tue 06:52:00 PM 33.1017 -117.5559 320° Northwest  Level Estimated
Tue 06:53:00 PM 33.1542 -117.6084 320° Northwest  Level Estimated
Tue 06:54:00 PM 33.2067 -117.6611 320° Northwest  Level Estimated
Tue 06:55:00 PM 33.2592 -117.7138 320° Northwest  Level Estimated
Tue 06:56:00 PM 33.3116 -117.7665 320° Northwest  Level Estimated
Tue 06:57:00 PM 33.3640 -117.8193 320° Northwest  Level Estimated
Tue 06:58:00 PM 33.4164 -117.8722 320° Northwest  Level Estimated
Tue 06:59:00 PM 33.4688 -117.9252 320° Northwest  Level Estimated
Tue 07:00:00 PM 33.5211 -117.9782 320° Northwest  Level Estimated
Tue 07:01:00 PM 33.5734 -118.0312 320° Northwest  Level Estimated
Tue 07:02:00 PM 33.6149 -118.0734 320° Northwest  Level Estimated
Tue 07:03:00 PM 33.6564 -118.1156 320° Northwest  Level Estimated
Tue 07:04:00 PM 33.6978 -118.1578 320° Northwest  Level Estimated
Tue 07:05:00 PM 33.7393 -118.2000 320° Northwest  Level Estimated
Tue 07:06:00 PM 33.7807 -118.2423 320° Northwest  Level Estimated
Tue 07:07:00 PM 33.8221 -118.2847 320° Northwest  Level Estimated
Tue 07:08:00 PM 33.8635 -118.3271 320° Northwest  Level Estimated
Tue 07:09:00 PM 33.9049 -118.3695 320° Northwest  Level Estimated
Tue 07:10:00 PM 33.9425 -118.4081 320° Northwest  Level Estimated
Tue 07:11:00 PM 33.9425 -118.4081 North  Level Estimated
Tue 07:12:00 PM 33.9425 -118.4081 North  Level Estimated
Tue 07:13:00 PM 33.9425 -118.4081 North  Level Estimated
Tue 07:14:00 PM 33.9425 -118.4081 North  Level Estimated
Tue 07:15:00 PM 33.9425 -118.4081 North  Level Estimated

Login

Don't have an account? Register now (free) for customized features, flight alerts, and more!